sensor_id;sensor_type;location;lat;lon;timestamp;P1;durP1;ratioP1;P2;durP2;ratioP2
21743;SDS011;11034;48.556;9.342;2024-01-30T00:01:38;8.43;;;5.03;;
21743;SDS011;11034;48.556;9.342;2024-01-30T00:04:06;9.77;;;5.75;;
21743;SDS011;11034;48.556;9.342;2024-01-30T00:06:34;8.82;;;5.15;;
21743;SDS011;11034;48.556;9.342;2024-01-30T00:09:04;8.10;;;5.05;;
21743;SDS011;11034;48.556;9.342;2024-01-30T00:11:32;9.25;;;5.03;;
21743;SDS011;11034;48.556;9.342;2024-01-30T00:14:00;10.02;;;5.28;;
21743;SDS011;11034;48.556;9.342;2024-01-30T00:16:29;10.38;;;5.00;;
21743;SDS011;11034;48.556;9.342;2024-01-30T00:18:57;9.55;;;5.32;;
21743;SDS011;11034;48.556;9.342;2024-01-30T00:21:27;8.93;;;5.15;;
21743;SDS011;11034;48.556;9.342;2024-01-30T00:23:55;8.80;;;4.60;;
21743;SDS011;11034;48.556;9.342;2024-01-30T00:26:24;7.22;;;4.35;;
21743;SDS011;11034;48.556;9.342;2024-01-30T00:28:52;6.95;;;4.65;;
21743;SDS011;11034;48.556;9.342;2024-01-30T00:31:21;7.03;;;4.50;;
21743;SDS011;11034;48.556;9.342;2024-01-30T00:33:49;9.07;;;4.93;;
21743;SDS011;11034;48.556;9.342;2024-01-30T00:36:17;7.97;;;5.22;;
21743;SDS011;11034;48.556;9.342;2024-01-30T00:38:45;9.02;;;5.20;;
21743;SDS011;11034;48.556;9.342;2024-01-30T00:41:14;7.50;;;5.25;;
21743;SDS011;11034;48.556;9.342;2024-01-30T00:43:46;8.30;;;4.90;;
21743;SDS011;11034;48.556;9.342;2024-01-30T00:46:14;8.00;;;5.07;;
21743;SDS011;11034;48.556;9.342;2024-01-30T00:48:42;10.73;;;5.47;;
21743;SDS011;11034;48.556;9.342;2024-01-30T00:51:10;10.18;;;5.45;;
21743;SDS011;11034;48.556;9.342;2024-01-30T00:53:38;11.48;;;5.88;;
21743;SDS011;11034;48.556;9.342;2024-01-30T00:56:08;8.45;;;5.53;;
21743;SDS011;11034;48.556;9.342;2024-01-30T00:58:38;9.98;;;5.70;;
21743;SDS011;11034;48.556;9.342;2024-01-30T01:01:07;7.90;;;5.20;;
21743;SDS011;11034;48.556;9.342;2024-01-30T01:03:35;9.43;;;5.30;;
21743;SDS011;11034;48.556;9.342;2024-01-30T01:06:04;9.18;;;5.75;;
21743;SDS011;11034;48.556;9.342;2024-01-30T01:08:32;9.10;;;5.72;;
21743;SDS011;11034;48.556;9.342;2024-01-30T01:11:00;8.85;;;5.60;;
21743;SDS011;11034;48.556;9.342;2024-01-30T01:13:29;8.55;;;4.80;;
21743;SDS011;11034;48.556;9.342;2024-01-30T01:15:57;7.30;;;5.03;;
21743;SDS011;11034;48.556;9.342;2024-01-30T01:18:27;8.48;;;4.38;;
21743;SDS011;11034;48.556;9.342;2024-01-30T01:20:55;7.30;;;4.72;;
21743;SDS011;11034;48.556;9.342;2024-01-30T01:23:24;7.78;;;4.75;;
21743;SDS011;11034;48.556;9.342;2024-01-30T01:25:52;8.95;;;5.20;;
21743;SDS011;11034;48.556;9.342;2024-01-30T01:28:24;6.05;;;4.63;;
21743;SDS011;11034;48.556;9.342;2024-01-30T01:30:52;6.85;;;4.75;;
21743;SDS011;11034;48.556;9.342;2024-01-30T01:33:25;7.75;;;5.00;;
21743;SDS011;11034;48.556;9.342;2024-01-30T01:35:55;8.25;;;5.32;;
21743;SDS011;11034;48.556;9.342;2024-01-30T01:38:23;7.20;;;4.50;;
21743;SDS011;11034;48.556;9.342;2024-01-30T01:40:51;9.02;;;4.53;;
21743;SDS011;11034;48.556;9.342;2024-01-30T01:43:19;6.05;;;3.53;;
21743;SDS011;11034;48.556;9.342;2024-01-30T01:45:47;5.13;;;3.35;;
21743;SDS011;11034;48.556;9.342;2024-01-30T01:48:16;5.05;;;2.90;;
21743;SDS011;11034;48.556;9.342;2024-01-30T01:50:44;4.72;;;3.35;;
21743;SDS011;11034;48.556;9.342;2024-01-30T01:53:14;5.15;;;2.88;;
21743;SDS011;11034;48.556;9.342;2024-01-30T01:55:43;5.10;;;2.95;;
21743;SDS011;11034;48.556;9.342;2024-01-30T01:58:11;4.53;;;2.85;;
21743;SDS011;11034;48.556;9.342;2024-01-30T02:00:40;4.95;;;2.90;;
21743;SDS011;11034;48.556;9.342;2024-01-30T02:03:09;4.80;;;2.53;;
21743;SDS011;11034;48.556;9.342;2024-01-30T02:05:38;3.53;;;2.50;;
21743;SDS011;11034;48.556;9.342;2024-01-30T02:08:08;3.72;;;2.40;;
21743;SDS011;11034;48.556;9.342;2024-01-30T02:10:38;4.05;;;2.65;;
21743;SDS011;11034;48.556;9.342;2024-01-30T02:13:06;5.07;;;2.53;;
21743;SDS011;11034;48.556;9.342;2024-01-30T02:15:34;4.40;;;3.00;;
21743;SDS011;11034;48.556;9.342;2024-01-30T02:18:02;5.93;;;3.80;;
21743;SDS011;11034;48.556;9.342;2024-01-30T02:20:31;3.45;;;2.70;;
21743;SDS011;11034;48.556;9.342;2024-01-30T02:23:03;4.20;;;2.70;;
21743;SDS011;11034;48.556;9.342;2024-01-30T02:25:33;4.50;;;2.20;;
21743;SDS011;11034;48.556;9.342;2024-01-30T02:28:05;2.75;;;1.85;;
21743;SDS011;11034;48.556;9.342;2024-01-30T02:30:33;3.00;;;1.80;;
21743;SDS011;11034;48.556;9.342;2024-01-30T02:33:02;3.88;;;2.33;;
21743;SDS011;11034;48.556;9.342;2024-01-30T02:35:30;8.20;;;4.95;;
21743;SDS011;11034;48.556;9.342;2024-01-30T02:37:58;8.57;;;5.10;;
21743;SDS011;11034;48.556;9.342;2024-01-30T02:40:28;9.18;;;4.85;;
21743;SDS011;11034;48.556;9.342;2024-01-30T02:42:56;9.40;;;4.82;;
21743;SDS011;11034;48.556;9.342;2024-01-30T02:45:25;7.28;;;4.75;;
21743;SDS011;11034;48.556;9.342;2024-01-30T02:47:53;8.48;;;4.90;;
21743;SDS011;11034;48.556;9.342;2024-01-30T02:50:21;5.15;;;3.10;;
21743;SDS011;11034;48.556;9.342;2024-01-30T02:52:49;6.82;;;2.38;;
21743;SDS011;11034;48.556;9.342;2024-01-30T02:55:17;4.18;;;2.20;;
21743;SDS011;11034;48.556;9.342;2024-01-30T02:57:47;3.10;;;1.80;;
21743;SDS011;11034;48.556;9.342;2024-01-30T03:00:15;2.72;;;1.85;;
21743;SDS011;11034;48.556;9.342;2024-01-30T03:02:43;3.38;;;1.80;;
21743;SDS011;11034;48.556;9.342;2024-01-30T03:05:13;3.72;;;1.98;;
21743;SDS011;11034;48.556;9.342;2024-01-30T03:07:41;2.80;;;1.90;;
21743;SDS011;11034;48.556;9.342;2024-01-30T03:10:09;2.88;;;1.80;;
21743;SDS011;11034;48.556;9.342;2024-01-30T03:12:37;3.55;;;2.47;;
21743;SDS011;11034;48.556;9.342;2024-01-30T03:15:07;5.47;;;3.00;;
21743;SDS011;11034;48.556;9.342;2024-01-30T03:17:37;5.47;;;2.83;;
21743;SDS011;11034;48.556;9.342;2024-01-30T03:20:05;3.97;;;2.63;;
21743;SDS011;11034;48.556;9.342;2024-01-30T03:22:34;4.88;;;2.80;;
21743;SDS011;11034;48.556;9.342;2024-01-30T03:25:02;5.60;;;3.50;;
21743;SDS011;11034;48.556;9.342;2024-01-30T03:27:31;8.05;;;4.82;;
21743;SDS011;11034;48.556;9.342;2024-01-30T03:29:59;6.93;;;4.50;;
21743;SDS011;11034;48.556;9.342;2024-01-30T03:32:29;6.90;;;4.63;;
21743;SDS011;11034;48.556;9.342;2024-01-30T03:34:57;8.32;;;4.78;;
21743;SDS011;11034;48.556;9.342;2024-01-30T03:37:26;9.45;;;5.05;;
21743;SDS011;11034;48.556;9.342;2024-01-30T03:39:54;8.27;;;5.38;;
21743;SDS011;11034;48.556;9.342;2024-01-30T03:42:22;9.32;;;5.68;;
21743;SDS011;11034;48.556;9.342;2024-01-30T03:44:50;8.45;;;4.90;;
21743;SDS011;11034;48.556;9.342;2024-01-30T03:47:19;7.15;;;4.50;;
21743;SDS011;11034;48.556;9.342;2024-01-30T03:49:49;6.95;;;4.18;;
21743;SDS011;11034;48.556;9.342;2024-01-30T03:52:17;7.75;;;5.20;;
21743;SDS011;11034;48.556;9.342;2024-01-30T03:54:46;8.20;;;5.20;;
21743;SDS011;11034;48.556;9.342;2024-01-30T03:57:14;9.93;;;5.20;;
21743;SDS011;11034;48.556;9.342;2024-01-30T03:59:42;9.10;;;5.20;;
21743;SDS011;11034;48.556;9.342;2024-01-30T04:02:10;7.13;;;4.78;;
21743;SDS011;11034;48.556;9.342;2024-01-30T04:04:38;8.40;;;5.20;;
21743;SDS011;11034;48.556;9.342;2024-01-30T04:07:08;8.90;;;5.18;;
21743;SDS011;11034;48.556;9.342;2024-01-30T04:09:37;8.82;;;5.07;;
21743;SDS011;11034;48.556;9.342;2024-01-30T04:12:06;10.60;;;5.82;;
21743;SDS011;11034;48.556;9.342;2024-01-30T04:14:34;11.68;;;5.68;;
21743;SDS011;11034;48.556;9.342;2024-01-30T04:17:03;8.23;;;5.70;;
21743;SDS011;11034;48.556;9.342;2024-01-30T04:19:31;8.85;;;5.30;;
21743;SDS011;11034;48.556;9.342;2024-01-30T04:21:59;8.93;;;5.72;;
21743;SDS011;11034;48.556;9.342;2024-01-30T04:24:28;8.60;;;5.55;;
21743;SDS011;11034;48.556;9.342;2024-01-30T04:26:56;7.35;;;5.05;;
21743;SDS011;11034;48.556;9.342;2024-01-30T04:29:24;7.88;;;4.75;;
21743;SDS011;11034;48.556;9.342;2024-01-30T04:31:53;7.93;;;5.10;;
21743;SDS011;11034;48.556;9.342;2024-01-30T04:34:21;8.18;;;4.53;;
21743;SDS011;11034;48.556;9.342;2024-01-30T04:36:49;6.65;;;4.07;;
21743;SDS011;11034;48.556;9.342;2024-01-30T04:39:18;5.80;;;3.45;;
21743;SDS011;11034;48.556;9.342;2024-01-30T04:41:47;4.03;;;2.67;;
21743;SDS011;11034;48.556;9.342;2024-01-30T04:44:15;4.45;;;2.97;;
21743;SDS011;11034;48.556;9.342;2024-01-30T04:46:43;8.35;;;4.43;;
21743;SDS011;11034;48.556;9.342;2024-01-30T04:49:11;7.03;;;3.47;;
21743;SDS011;11034;48.556;9.342;2024-01-30T04:51:39;7.88;;;3.88;;
21743;SDS011;11034;48.556;9.342;2024-01-30T04:54:08;8.27;;;4.07;;
21743;SDS011;11034;48.556;9.342;2024-01-30T04:56:36;5.00;;;3.70;;
21743;SDS011;11034;48.556;9.342;2024-01-30T04:59:07;6.22;;;3.00;;
21743;SDS011;11034;48.556;9.342;2024-01-30T05:01:35;4.15;;;2.38;;
21743;SDS011;11034;48.556;9.342;2024-01-30T05:04:04;4.72;;;2.53;;
21743;SDS011;11034;48.556;9.342;2024-01-30T05:06:36;6.00;;;2.20;;
21743;SDS011;11034;48.556;9.342;2024-01-30T05:09:05;2.80;;;1.73;;
21743;SDS011;11034;48.556;9.342;2024-01-30T05:11:36;2.33;;;1.65;;
21743;SDS011;11034;48.556;9.342;2024-01-30T05:14:06;7.10;;;4.30;;
21743;SDS011;11034;48.556;9.342;2024-01-30T05:16:35;8.68;;;5.32;;
21743;SDS011;11034;48.556;9.342;2024-01-30T05:19:03;7.20;;;4.82;;
21743;SDS011;11034;48.556;9.342;2024-01-30T05:21:31;7.20;;;4.75;;
21743;SDS011;11034;48.556;9.342;2024-01-30T05:23:59;7.90;;;5.20;;
21743;SDS011;11034;48.556;9.342;2024-01-30T05:26:27;7.38;;;4.82;;
21743;SDS011;11034;48.556;9.342;2024-01-30T05:28:55;4.35;;;2.90;;
21743;SDS011;11034;48.556;9.342;2024-01-30T05:31:25;2.65;;;1.90;;
21743;SDS011;11034;48.556;9.342;2024-01-30T05:33:54;3.47;;;1.70;;
21743;SDS011;11034;48.556;9.342;2024-01-30T05:36:22;2.25;;;1.58;;
21743;SDS011;11034;48.556;9.342;2024-01-30T05:38:50;2.35;;;1.75;;
21743;SDS011;11034;48.556;9.342;2024-01-30T05:41:19;3.20;;;1.60;;
21743;SDS011;11034;48.556;9.342;2024-01-30T05:43:47;2.10;;;1.40;;
21743;SDS011;11034;48.556;9.342;2024-01-30T05:46:15;2.20;;;1.65;;
21743;SDS011;11034;48.556;9.342;2024-01-30T05:48:46;2.70;;;1.83;;
21743;SDS011;11034;48.556;9.342;2024-01-30T05:51:14;2.92;;;1.63;;
21743;SDS011;11034;48.556;9.342;2024-01-30T05:53:42;3.67;;;1.67;;
21743;SDS011;11034;48.556;9.342;2024-01-30T05:56:10;2.97;;;1.67;;
21743;SDS011;11034;48.556;9.342;2024-01-30T05:58:38;3.33;;;1.90;;
21743;SDS011;11034;48.556;9.342;2024-01-30T06:01:07;4.15;;;1.77;;
21743;SDS011;11034;48.556;9.342;2024-01-30T06:03:35;2.67;;;1.58;;
21743;SDS011;11034;48.556;9.342;2024-01-30T06:06:06;4.70;;;1.65;;
21743;SDS011;11034;48.556;9.342;2024-01-30T06:08:34;3.60;;;1.73;;
21743;SDS011;11034;48.556;9.342;2024-01-30T06:11:02;16.67;;;7.95;;
21743;SDS011;11034;48.556;9.342;2024-01-30T06:13:31;33.75;;;13.85;;
21743;SDS011;11034;48.556;9.342;2024-01-30T06:15:59;17.63;;;9.13;;
21743;SDS011;11034;48.556;9.342;2024-01-30T06:18:27;14.70;;;8.23;;
21743;SDS011;11034;48.556;9.342;2024-01-30T06:20:57;12.10;;;7.57;;
21743;SDS011;11034;48.556;9.342;2024-01-30T06:23:27;6.72;;;3.97;;
21743;SDS011;11034;48.556;9.342;2024-01-30T06:25:55;3.55;;;2.17;;
21743;SDS011;11034;48.556;9.342;2024-01-30T06:28:23;3.70;;;2.00;;
21743;SDS011;11034;48.556;9.342;2024-01-30T06:30:51;2.72;;;1.90;;
21743;SDS011;11034;48.556;9.342;2024-01-30T06:33:19;3.50;;;2.33;;
21743;SDS011;11034;48.556;9.342;2024-01-30T06:35:47;9.85;;;5.95;;
21743;SDS011;11034;48.556;9.342;2024-01-30T06:38:15;10.98;;;7.57;;
21743;SDS011;11034;48.556;9.342;2024-01-30T06:40:45;9.77;;;7.57;;
21743;SDS011;11034;48.556;9.342;2024-01-30T06:43:13;11.43;;;7.75;;
21743;SDS011;11034;48.556;9.342;2024-01-30T06:45:41;13.38;;;7.60;;
21743;SDS011;11034;48.556;9.342;2024-01-30T06:48:09;7.55;;;3.92;;
21743;SDS011;11034;48.556;9.342;2024-01-30T06:50:38;3.85;;;2.90;;
21743;SDS011;11034;48.556;9.342;2024-01-30T06:53:06;6.18;;;3.88;;
21743;SDS011;11034;48.556;9.342;2024-01-30T06:55:34;5.28;;;2.97;;
21743;SDS011;11034;48.556;9.342;2024-01-30T06:58:04;3.20;;;2.08;;
21743;SDS011;11034;48.556;9.342;2024-01-30T07:00:32;4.47;;;2.30;;
21743;SDS011;11034;48.556;9.342;2024-01-30T07:03:00;5.90;;;3.92;;
21743;SDS011;11034;48.556;9.342;2024-01-30T07:05:28;3.65;;;2.15;;
21743;SDS011;11034;48.556;9.342;2024-01-30T07:07:56;2.70;;;2.00;;
21743;SDS011;11034;48.556;9.342;2024-01-30T07:10:24;2.75;;;1.88;;
21743;SDS011;11034;48.556;9.342;2024-01-30T07:12:53;2.80;;;1.83;;
21743;SDS011;11034;48.556;9.342;2024-01-30T07:15:22;3.10;;;2.00;;
21743;SDS011;11034;48.556;9.342;2024-01-30T07:17:50;3.50;;;1.98;;
21743;SDS011;11034;48.556;9.342;2024-01-30T07:20:18;3.03;;;2.13;;
21743;SDS011;11034;48.556;9.342;2024-01-30T07:22:47;2.47;;;1.70;;
21743;SDS011;11034;48.556;9.342;2024-01-30T07:25:15;3.13;;;2.00;;
21743;SDS011;11034;48.556;9.342;2024-01-30T07:27:43;2.88;;;1.73;;
21743;SDS011;11034;48.556;9.342;2024-01-30T07:30:12;2.80;;;1.70;;
21743;SDS011;11034;48.556;9.342;2024-01-30T07:32:41;3.60;;;1.98;;
21743;SDS011;11034;48.556;9.342;2024-01-30T07:35:09;2.78;;;1.73;;
21743;SDS011;11034;48.556;9.342;2024-01-30T07:37:38;2.92;;;1.90;;
21743;SDS011;11034;48.556;9.342;2024-01-30T07:40:06;3.38;;;1.60;;
21743;SDS011;11034;48.556;9.342;2024-01-30T07:42:35;2.20;;;1.67;;
21743;SDS011;11034;48.556;9.342;2024-01-30T07:45:03;3.08;;;1.75;;
21743;SDS011;11034;48.556;9.342;2024-01-30T07:47:32;2.80;;;1.50;;
21743;SDS011;11034;48.556;9.342;2024-01-30T07:50:01;3.08;;;1.77;;
21743;SDS011;11034;48.556;9.342;2024-01-30T07:52:30;4.18;;;1.70;;
21743;SDS011;11034;48.556;9.342;2024-01-30T07:54:59;3.17;;;1.80;;
21743;SDS011;11034;48.556;9.342;2024-01-30T07:57:26;2.88;;;1.70;;
21743;SDS011;11034;48.556;9.342;2024-01-30T07:59:54;3.30;;;1.80;;
21743;SDS011;11034;48.556;9.342;2024-01-30T08:02:23;3.35;;;1.67;;
21743;SDS011;11034;48.556;9.342;2024-01-30T08:04:51;2.85;;;1.58;;
21743;SDS011;11034;48.556;9.342;2024-01-30T08:07:21;3.03;;;1.70;;
21743;SDS011;11034;48.556;9.342;2024-01-30T08:09:49;2.95;;;1.73;;
21743;SDS011;11034;48.556;9.342;2024-01-30T08:12:17;2.08;;;1.55;;
21743;SDS011;11034;48.556;9.342;2024-01-30T08:14:45;2.63;;;1.60;;
21743;SDS011;11034;48.556;9.342;2024-01-30T08:17:13;2.42;;;1.58;;
21743;SDS011;11034;48.556;9.342;2024-01-30T08:19:41;2.15;;;1.48;;
21743;SDS011;11034;48.556;9.342;2024-01-30T08:22:11;1.42;;;1.27;;
21743;SDS011;11034;48.556;9.342;2024-01-30T08:24:41;2.30;;;1.23;;
21743;SDS011;11034;48.556;9.342;2024-01-30T08:27:10;1.67;;;1.40;;
21743;SDS011;11034;48.556;9.342;2024-01-30T08:29:38;2.50;;;1.30;;
21743;SDS011;11034;48.556;9.342;2024-01-30T08:32:06;2.13;;;1.30;;
21743;SDS011;11034;48.556;9.342;2024-01-30T08:34:34;2.72;;;1.50;;
21743;SDS011;11034;48.556;9.342;2024-01-30T08:37:03;2.00;;;1.50;;
21743;SDS011;11034;48.556;9.342;2024-01-30T08:39:31;2.35;;;1.30;;
21743;SDS011;11034;48.556;9.342;2024-01-30T08:42:00;2.38;;;1.60;;
21743;SDS011;11034;48.556;9.342;2024-01-30T08:44:28;3.58;;;1.20;;
21743;SDS011;11034;48.556;9.342;2024-01-30T08:46:56;1.83;;;1.30;;
21743;SDS011;11034;48.556;9.342;2024-01-30T08:49:26;2.25;;;1.30;;
21743;SDS011;11034;48.556;9.342;2024-01-30T08:51:54;1.77;;;1.30;;
21743;SDS011;11034;48.556;9.342;2024-01-30T08:54:22;2.05;;;1.60;;
21743;SDS011;11034;48.556;9.342;2024-01-30T08:56:51;2.13;;;1.40;;
21743;SDS011;11034;48.556;9.342;2024-01-30T08:59:21;2.08;;;1.42;;
21743;SDS011;11034;48.556;9.342;2024-01-30T09:01:49;2.47;;;1.70;;
21743;SDS011;11034;48.556;9.342;2024-01-30T09:04:32;2.30;;;1.67;;
21743;SDS011;11034;48.556;9.342;2024-01-30T09:07:00;1.95;;;1.50;;
21743;SDS011;11034;48.556;9.342;2024-01-30T09:09:29;3.13;;;1.48;;
21743;SDS011;11034;48.556;9.342;2024-01-30T09:11:57;2.10;;;1.40;;
21743;SDS011;11034;48.556;9.342;2024-01-30T09:14:32;2.70;;;1.50;;
21743;SDS011;11034;48.556;9.342;2024-01-30T09:17:00;2.60;;;1.65;;
21743;SDS011;11034;48.556;9.342;2024-01-30T09:19:29;4.40;;;2.72;;
21743;SDS011;11034;48.556;9.342;2024-01-30T09:21:57;20.35;;;11.38;;
21743;SDS011;11034;48.556;9.342;2024-01-30T09:24:26;7.20;;;5.10;;
21743;SDS011;11034;48.556;9.342;2024-01-30T09:26:54;2.58;;;2.00;;
21743;SDS011;11034;48.556;9.342;2024-01-30T09:29:22;2.35;;;1.60;;
21743;SDS011;11034;48.556;9.342;2024-01-30T09:31:52;2.13;;;1.50;;
21743;SDS011;11034;48.556;9.342;2024-01-30T09:34:20;2.00;;;1.40;;
21743;SDS011;11034;48.556;9.342;2024-01-30T09:36:48;1.77;;;1.40;;
21743;SDS011;11034;48.556;9.342;2024-01-30T09:39:16;2.05;;;1.42;;
21743;SDS011;11034;48.556;9.342;2024-01-30T09:41:48;3.42;;;1.65;;
21743;SDS011;11034;48.556;9.342;2024-01-30T09:44:19;4.63;;;1.80;;
21743;SDS011;11034;48.556;9.342;2024-01-30T09:46:48;2.72;;;1.63;;
21743;SDS011;11034;48.556;9.342;2024-01-30T09:49:19;2.92;;;1.85;;
21743;SDS011;11034;48.556;9.342;2024-01-30T09:51:51;4.70;;;1.92;;
21743;SDS011;11034;48.556;9.342;2024-01-30T09:54:20;2.03;;;1.48;;
21743;SDS011;11034;48.556;9.342;2024-01-30T09:56:48;3.40;;;1.60;;
21743;SDS011;11034;48.556;9.342;2024-01-30T09:59:16;2.80;;;1.70;;
21743;SDS011;11034;48.556;9.342;2024-01-30T10:01:45;2.90;;;1.85;;
21743;SDS011;11034;48.556;9.342;2024-01-30T10:04:13;2.40;;;1.88;;
21743;SDS011;11034;48.556;9.342;2024-01-30T10:06:43;2.88;;;1.90;;
21743;SDS011;11034;48.556;9.342;2024-01-30T10:09:12;3.72;;;2.15;;
21743;SDS011;11034;48.556;9.342;2024-01-30T10:11:40;2.78;;;2.03;;
21743;SDS011;11034;48.556;9.342;2024-01-30T10:14:08;2.33;;;1.73;;
21743;SDS011;11034;48.556;9.342;2024-01-30T10:16:37;3.53;;;2.03;;
21743;SDS011;11034;48.556;9.342;2024-01-30T10:19:05;2.22;;;1.80;;
21743;SDS011;11034;48.556;9.342;2024-01-30T10:21:34;4.15;;;2.20;;
21743;SDS011;11034;48.556;9.342;2024-01-30T10:24:04;2.92;;;2.05;;
21743;SDS011;11034;48.556;9.342;2024-01-30T10:26:33;4.40;;;2.17;;
21743;SDS011;11034;48.556;9.342;2024-01-30T10:29:01;6.13;;;2.55;;
21743;SDS011;11034;48.556;9.342;2024-01-30T10:31:29;3.95;;;2.30;;
21743;SDS011;11034;48.556;9.342;2024-01-30T10:33:58;5.70;;;2.40;;
21743;SDS011;11034;48.556;9.342;2024-01-30T10:36:41;6.80;;;3.00;;
21743;SDS011;11034;48.556;9.342;2024-01-30T10:39:15;5.30;;;3.38;;
21743;SDS011;11034;48.556;9.342;2024-01-30T10:41:45;5.63;;;2.30;;
21743;SDS011;11034;48.556;9.342;2024-01-30T10:44:19;3.22;;;2.38;;
21743;SDS011;11034;48.556;9.342;2024-01-30T10:46:51;5.22;;;2.28;;
21743;SDS011;11034;48.556;9.342;2024-01-30T10:49:27;5.43;;;2.20;;
21743;SDS011;11034;48.556;9.342;2024-01-30T10:51:57;3.50;;;2.10;;
21743;SDS011;11034;48.556;9.342;2024-01-30T10:54:27;4.13;;;1.90;;
21743;SDS011;11034;48.556;9.342;2024-01-30T10:56:58;6.00;;;3.13;;
21743;SDS011;11034;48.556;9.342;2024-01-30T10:59:30;7.15;;;3.38;;
21743;SDS011;11034;48.556;9.342;2024-01-30T11:01:59;10.40;;;4.35;;
21743;SDS011;11034;48.556;9.342;2024-01-30T11:04:35;11.15;;;4.47;;
21743;SDS011;11034;48.556;9.342;2024-01-30T11:07:13;3.35;;;2.30;;
21743;SDS011;11034;48.556;9.342;2024-01-30T11:09:49;5.05;;;2.20;;
21743;SDS011;11034;48.556;9.342;2024-01-30T11:12:21;10.50;;;5.10;;
21743;SDS011;11034;48.556;9.342;2024-01-30T11:15:01;3.40;;;2.40;;
21743;SDS011;11034;48.556;9.342;2024-01-30T11:20:19;4.53;;;2.55;;
21743;SDS011;11034;48.556;9.342;2024-01-30T11:22:50;3.38;;;2.08;;
21743;SDS011;11034;48.556;9.342;2024-01-30T11:25:21;3.00;;;2.10;;
21743;SDS011;11034;48.556;9.342;2024-01-30T11:27:50;6.53;;;2.88;;
21743;SDS011;11034;48.556;9.342;2024-01-30T11:30:23;10.88;;;5.10;;
21743;SDS011;11034;48.556;9.342;2024-01-30T11:32:58;14.98;;;6.00;;
21743;SDS011;11034;48.556;9.342;2024-01-30T11:35:32;9.65;;;4.28;;
21743;SDS011;11034;48.556;9.342;2024-01-30T11:38:01;8.15;;;3.60;;
21743;SDS011;11034;48.556;9.342;2024-01-30T11:40:32;4.80;;;2.67;;
21743;SDS011;11034;48.556;9.342;2024-01-30T11:43:02;10.30;;;4.25;;
21743;SDS011;11034;48.556;9.342;2024-01-30T11:45:32;3.65;;;2.25;;
21743;SDS011;11034;48.556;9.342;2024-01-30T11:48:01;3.65;;;2.25;;
21743;SDS011;11034;48.556;9.342;2024-01-30T11:50:30;3.40;;;2.00;;
21743;SDS011;11034;48.556;9.342;2024-01-30T11:53:01;6.32;;;3.70;;
21743;SDS011;11034;48.556;9.342;2024-01-30T11:55:29;9.82;;;4.55;;
21743;SDS011;11034;48.556;9.342;2024-01-30T11:58:01;5.43;;;3.05;;
21743;SDS011;11034;48.556;9.342;2024-01-30T12:00:30;3.10;;;1.98;;
21743;SDS011;11034;48.556;9.342;2024-01-30T12:03:01;3.00;;;2.17;;
21743;SDS011;11034;48.556;9.342;2024-01-30T12:05:30;8.15;;;3.92;;
21743;SDS011;11034;48.556;9.342;2024-01-30T12:07:58;4.53;;;2.25;;
21743;SDS011;11034;48.556;9.342;2024-01-30T12:10:28;3.28;;;2.00;;
21743;SDS011;11034;48.556;9.342;2024-01-30T12:12:58;4.10;;;2.58;;
21743;SDS011;11034;48.556;9.342;2024-01-30T12:15:29;7.63;;;2.25;;
21743;SDS011;11034;48.556;9.342;2024-01-30T12:18:03;4.50;;;2.42;;
21743;SDS011;11034;48.556;9.342;2024-01-30T12:20:33;3.25;;;1.95;;
21743;SDS011;11034;48.556;9.342;2024-01-30T12:23:02;13.63;;;7.40;;
21743;SDS011;11034;48.556;9.342;2024-01-30T12:25:30;14.82;;;8.20;;
21743;SDS011;11034;48.556;9.342;2024-01-30T12:28:00;10.13;;;6.72;;
21743;SDS011;11034;48.556;9.342;2024-01-30T12:30:29;8.60;;;5.30;;
21743;SDS011;11034;48.556;9.342;2024-01-30T12:32:57;7.82;;;5.68;;
21743;SDS011;11034;48.556;9.342;2024-01-30T12:35:25;10.82;;;6.95;;
21743;SDS011;11034;48.556;9.342;2024-01-30T12:37:58;9.02;;;5.47;;
21743;SDS011;11034;48.556;9.342;2024-01-30T12:40:26;10.40;;;6.22;;
21743;SDS011;11034;48.556;9.342;2024-01-30T12:42:55;11.00;;;5.25;;
21743;SDS011;11034;48.556;9.342;2024-01-30T12:45:25;6.07;;;3.50;;
21743;SDS011;11034;48.556;9.342;2024-01-30T12:47:52;7.22;;;4.28;;
21743;SDS011;11034;48.556;9.342;2024-01-30T12:50:21;8.85;;;4.32;;
21743;SDS011;11034;48.556;9.342;2024-01-30T12:52:49;8.75;;;4.97;;
21743;SDS011;11034;48.556;9.342;2024-01-30T12:55:18;7.38;;;3.10;;
21743;SDS011;11034;48.556;9.342;2024-01-30T12:57:46;4.35;;;2.78;;
21743;SDS011;11034;48.556;9.342;2024-01-30T13:00:14;4.80;;;2.88;;
21743;SDS011;11034;48.556;9.342;2024-01-30T13:02:45;4.63;;;2.65;;
21743;SDS011;11034;48.556;9.342;2024-01-30T13:05:14;4.45;;;2.83;;
21743;SDS011;11034;48.556;9.342;2024-01-30T13:07:43;6.25;;;3.28;;
21743;SDS011;11034;48.556;9.342;2024-01-30T13:10:11;4.85;;;3.58;;
21743;SDS011;11034;48.556;9.342;2024-01-30T13:12:40;5.50;;;3.95;;
21743;SDS011;11034;48.556;9.342;2024-01-30T13:15:08;3.42;;;2.42;;
21743;SDS011;11034;48.556;9.342;2024-01-30T13:17:37;6.50;;;3.03;;
21743;SDS011;11034;48.556;9.342;2024-01-30T13:20:09;3.85;;;2.05;;
21743;SDS011;11034;48.556;9.342;2024-01-30T13:22:38;3.75;;;2.25;;
21743;SDS011;11034;48.556;9.342;2024-01-30T13:25:06;6.50;;;2.35;;
21743;SDS011;11034;48.556;9.342;2024-01-30T13:27:35;3.80;;;2.17;;
21743;SDS011;11034;48.556;9.342;2024-01-30T13:30:06;3.33;;;2.20;;
21743;SDS011;11034;48.556;9.342;2024-01-30T13:32:36;3.45;;;2.38;;
21743;SDS011;11034;48.556;9.342;2024-01-30T13:35:05;4.95;;;2.10;;
21743;SDS011;11034;48.556;9.342;2024-01-30T13:37:34;3.50;;;2.40;;
21743;SDS011;11034;48.556;9.342;2024-01-30T13:40:04;4.55;;;2.92;;
21743;SDS011;11034;48.556;9.342;2024-01-30T13:42:39;5.40;;;2.50;;
21743;SDS011;11034;48.556;9.342;2024-01-30T13:45:07;8.93;;;2.92;;
21743;SDS011;11034;48.556;9.342;2024-01-30T13:47:37;4.32;;;2.40;;
21743;SDS011;11034;48.556;9.342;2024-01-30T13:50:06;3.42;;;2.45;;
21743;SDS011;11034;48.556;9.342;2024-01-30T13:52:38;4.00;;;2.67;;
21743;SDS011;11034;48.556;9.342;2024-01-30T13:55:10;4.32;;;2.50;;
21743;SDS011;11034;48.556;9.342;2024-01-30T13:57:39;4.32;;;2.65;;
21743;SDS011;11034;48.556;9.342;2024-01-30T14:00:08;3.47;;;2.50;;
21743;SDS011;11034;48.556;9.342;2024-01-30T14:02:37;4.55;;;2.88;;
21743;SDS011;11034;48.556;9.342;2024-01-30T14:05:06;4.82;;;2.70;;
21743;SDS011;11034;48.556;9.342;2024-01-30T14:07:35;5.82;;;2.45;;
21743;SDS011;11034;48.556;9.342;2024-01-30T14:10:07;8.00;;;2.72;;
21743;SDS011;11034;48.556;9.342;2024-01-30T14:12:39;3.80;;;2.47;;
21743;SDS011;11034;48.556;9.342;2024-01-30T14:15:09;3.90;;;2.60;;
21743;SDS011;11034;48.556;9.342;2024-01-30T14:17:52;4.75;;;2.60;;
21743;SDS011;11034;48.556;9.342;2024-01-30T14:20:21;3.97;;;2.25;;
21743;SDS011;11034;48.556;9.342;2024-01-30T14:22:52;5.35;;;2.40;;
21743;SDS011;11034;48.556;9.342;2024-01-30T14:25:22;3.75;;;2.60;;
21743;SDS011;11034;48.556;9.342;2024-01-30T14:27:50;3.70;;;2.17;;
21743;SDS011;11034;48.556;9.342;2024-01-30T14:30:19;4.20;;;2.47;;
21743;SDS011;11034;48.556;9.342;2024-01-30T14:32:47;5.03;;;2.65;;
21743;SDS011;11034;48.556;9.342;2024-01-30T14:35:15;5.30;;;2.33;;
21743;SDS011;11034;48.556;9.342;2024-01-30T14:37:43;5.43;;;2.90;;
21743;SDS011;11034;48.556;9.342;2024-01-30T14:40:13;3.83;;;2.55;;
21743;SDS011;11034;48.556;9.342;2024-01-30T14:42:41;4.95;;;2.05;;
21743;SDS011;11034;48.556;9.342;2024-01-30T14:45:09;2.58;;;2.03;;
21743;SDS011;11034;48.556;9.342;2024-01-30T14:47:38;4.03;;;2.40;;
21743;SDS011;11034;48.556;9.342;2024-01-30T14:50:07;6.50;;;2.70;;
21743;SDS011;11034;48.556;9.342;2024-01-30T14:52:36;4.30;;;2.20;;
21743;SDS011;11034;48.556;9.342;2024-01-30T14:55:06;4.60;;;2.33;;
21743;SDS011;11034;48.556;9.342;2024-01-30T14:57:36;6.85;;;2.80;;
21743;SDS011;11034;48.556;9.342;2024-01-30T15:00:05;3.97;;;2.78;;